Time;durP1;ratioP1;P1;durP2;ratioP2;P2;SDS_P1;SDS_P2;PMS_P1;PMS_P2;Temp;Humidity;BMP_temperature;BMP_pressure;BME280_temperature;BME280_humidity;BME280_pressure;Samples;Min_cycle;Max_cycle;Signal;HPM_P1;HPM_P2
2022/02/12 00:00:15;;;;;;;11.85;6.40;;;-1.40;99.90;;;;;;5097518;28;20395;-84
2022/02/12 00:02:41;;;;;;;12.20;7.90;;;-1.40;99.90;;;;;;5078600;28;20364;-83
2022/02/12 00:05:07;;;;;;;14.15;8.00;;;-1.40;99.90;;;;;;5096739;28;20385;-83
2022/02/12 00:07:34;;;;;;;16.53;8.43;;;-1.40;99.90;;;;;;5077500;28;20427;-82
2022/02/12 00:09:59;;;;;;;13.10;6.93;;;-1.40;99.90;;;;;;5078004;28;20420;-81
2022/02/12 00:12:25;;;;;;;13.52;8.23;;;-1.40;99.90;;;;;;5096569;28;20411;-82
2022/02/12 00:14:51;;;;;;;14.50;8.43;;;-1.50;99.90;;;;;;5109549;27;20376;-82
2022/02/12 00:17:17;;;;;;;16.35;10.07;;;-1.50;99.90;;;;;;5098565;28;20444;-82
2022/02/12 00:19:42;;;;;;;23.42;13.63;;;-1.60;99.90;;;;;;5080135;28;20411;-82
2022/02/12 00:22:08;;;;;;;20.05;11.90;;;-1.60;99.90;;;;;;5082339;28;20443;-82
2022/02/12 00:24:34;;;;;;;16.42;10.40;;;-1.60;99.90;;;;;;5122993;27;20375;-82
2022/02/12 00:26:59;;;;;;;28.48;14.98;;;-1.60;99.90;;;;;;5121820;27;20380;-82
2022/02/12 00:29:26;;;;;;;22.63;12.27;;;-1.60;99.90;;;;;;5092533;28;20507;-82
2022/02/12 00:31:51;;;;;;;26.40;14.18;;;-1.70;99.90;;;;;;5111218;28;20415;-84
2022/02/12 00:34:17;;;;;;;23.88;12.88;;;-1.70;99.90;;;;;;5115655;28;20379;-84
2022/02/12 00:36:42;;;;;;;21.48;12.63;;;-1.60;99.90;;;;;;5110796;27;20411;-83
2022/02/12 00:39:09;;;;;;;19.92;11.00;;;-1.70;99.90;;;;;;5105758;28;20777;-83
2022/02/12 00:41:35;;;;;;;20.87;11.07;;;-1.70;99.90;;;;;;5091432;28;20442;-82
2022/02/12 00:44:00;;;;;;;18.05;11.38;;;-1.70;99.90;;;;;;5092493;28;20854;-83
2022/02/12 00:46:27;;;;;;;19.63;11.20;;;-1.80;99.90;;;;;;5076652;28;20427;-84
2022/02/12 00:48:53;;;;;;;22.58;12.48;;;-1.80;99.90;;;;;;5073391;28;20392;-85
2022/02/12 00:51:18;;;;;;;21.10;12.10;;;-1.80;99.90;;;;;;5095684;28;20451;-83
2022/02/12 00:53:44;;;;;;;22.13;13.20;;;-1.80;99.90;;;;;;5090342;28;20380;-83
2022/02/12 00:56:10;;;;;;;22.53;13.50;;;-1.80;99.90;;;;;;5090442;28;20377;-82
2022/02/12 00:58:35;;;;;;;23.17;13.20;;;-1.80;99.90;;;;;;5072092;28;20445;-84
2022/02/12 01:01:01;;;;;;;23.90;14.68;;;-1.80;99.90;;;;;;5090110;28;20712;-84
2022/02/12 01:03:26;;;;;;;32.97;17.92;;;-1.80;99.90;;;;;;5077423;28;20392;-84
2022/02/12 01:05:52;;;;;;;39.30;21.05;;;-1.90;99.90;;;;;;5089734;28;20788;-85
2022/02/12 01:08:17;;;;;;;80.05;37.05;;;-1.90;99.90;;;;;;5088963;28;20373;-83
2022/02/12 01:10:43;;;;;;;87.33;41.87;;;-1.90;99.90;;;;;;5071055;28;20400;-83
2022/02/12 01:13:09;;;;;;;80.63;40.47;;;-1.90;99.90;;;;;;5099237;28;20383;-85
2022/02/12 01:15:34;;;;;;;72.87;35.20;;;-1.90;99.90;;;;;;5102723;28;20388;-83
2022/02/12 01:18:01;;;;;;;61.17;29.27;;;-1.90;99.90;;;;;;5074035;28;21250;-82
2022/02/12 01:20:27;;;;;;;64.05;31.45;;;-1.90;99.90;;;;;;5105015;28;20377;-83
2022/02/12 01:22:53;;;;;;;49.08;23.80;;;-1.90;99.90;;;;;;5071123;28;20863;-83
2022/02/12 01:25:19;;;;;;;42.10;20.90;;;-2.00;99.90;;;;;;5094373;28;20402;-85
2022/02/12 01:27:45;;;;;;;48.20;24.65;;;-1.90;99.90;;;;;;5079324;28;20407;-83
2022/02/12 01:30:11;;;;;;;44.58;21.50;;;-2.00;99.90;;;;;;5106204;28;20511;-85
2022/02/12 01:32:38;;;;;;;41.15;20.20;;;-2.00;99.90;;;;;;5108674;28;20382;-83
2022/02/12 01:35:04;;;;;;;29.42;16.48;;;-2.00;99.90;;;;;;5082685;28;20491;-85
2022/02/12 01:37:29;;;;;;;25.25;12.95;;;-2.00;99.90;;;;;;5093173;28;20389;-85
2022/02/12 01:39:55;;;;;;;22.00;12.20;;;-2.00;99.90;;;;;;5107817;28;20730;-83
2022/02/12 01:42:21;;;;;;;21.33;11.97;;;-2.00;99.90;;;;;;5101654;28;20376;-83
2022/02/12 01:44:47;;;;;;;23.70;12.48;;;-2.00;99.90;;;;;;5076466;28;20383;-85
2022/02/12 01:47:13;;;;;;;22.25;11.57;;;-2.10;99.90;;;;;;5091392;28;20383;-85
2022/02/12 01:49:40;;;;;;;20.35;11.30;;;-2.10;99.90;;;;;;5094216;28;20478;-83
2022/02/12 01:52:09;;;;;;;14.93;8.77;;;-2.10;99.90;;;;;;5072180;28;20392;-84
2022/02/12 01:54:35;;;;;;;15.32;9.18;;;-2.10;99.90;;;;;;5101322;28;20389;-82
2022/02/12 01:57:02;;;;;;;15.50;9.30;;;-2.10;99.90;;;;;;5071760;28;20421;-83
2022/02/12 01:59:29;;;;;;;16.13;9.18;;;-2.10;99.90;;;;;;5085450;28;20476;-83
2022/02/12 02:01:55;;;;;;;14.75;8.52;;;-2.20;99.90;;;;;;5099051;28;20471;-86
2022/02/12 02:04:20;;;;;;;13.77;8.18;;;-2.20;99.90;;;;;;5070509;28;20978;-84
2022/02/12 02:06:47;;;;;;;13.18;7.35;;;-2.20;99.90;;;;;;5080367;28;20383;-85
2022/02/12 02:09:15;;;;;;;16.65;8.02;;;-2.20;99.90;;;;;;5081463;28;20455;-83
2022/02/12 02:11:41;;;;;;;12.30;7.63;;;-2.20;99.90;;;;;;5101260;28;20428;-82
2022/02/12 02:14:07;;;;;;;12.60;6.82;;;-2.20;99.90;;;;;;5089394;28;20558;-85
2022/02/12 02:16:33;;;;;;;11.98;6.82;;;-2.30;99.90;;;;;;5091512;28;20464;-82
2022/02/12 02:18:59;;;;;;;10.55;6.70;;;-2.30;99.90;;;;;;5088658;28;20797;-83
2022/02/12 02:21:27;;;;;;;9.73;6.73;;;-2.30;99.90;;;;;;5088557;28;20365;-86
2022/02/12 02:23:53;;;;;;;10.82;6.82;;;-2.30;99.90;;;;;;5088656;28;20366;-83
2022/02/12 02:26:20;;;;;;;13.65;7.18;;;-2.30;99.90;;;;;;5070297;28;20396;-86
2022/02/12 02:28:49;;;;;;;11.32;7.28;;;-2.30;99.90;;;;;;5089321;28;20500;-85
2022/02/12 02:31:15;;;;;;;15.10;8.00;;;-2.30;99.90;;;;;;5071250;28;21205;-84
2022/02/12 02:33:40;;;;;;;14.07;8.23;;;-2.30;99.90;;;;;;5093849;28;20437;-86
2022/02/12 02:36:06;;;;;;;17.77;8.83;;;-2.30;99.90;;;;;;5095512;28;20420;-85
2022/02/12 02:38:33;;;;;;;12.73;7.90;;;-2.30;99.90;;;;;;5111905;28;20749;-84
2022/02/12 02:40:58;;;;;;;15.65;8.10;;;-2.30;99.90;;;;;;5088021;28;20871;-82
2022/02/12 02:43:25;;;;;;;15.70;8.67;;;-2.30;99.90;;;;;;5112698;28;20487;-87
2022/02/12 02:45:51;;;;;;;13.43;7.20;;;-2.30;99.90;;;;;;5094476;28;20431;-83
2022/02/12 02:48:17;;;;;;;14.10;7.72;;;-2.30;99.90;;;;;;5100991;28;20398;-85
2022/02/12 02:56:12;;;;;;;12.77;7.10;;;-2.30;99.90;;;;;;5112257;28;20397;-85
2022/02/12 02:58:47;;;;;;;14.13;7.75;;;-2.30;99.90;;;;;;5093572;28;20410;-84
2022/02/12 03:01:14;;;;;;;13.60;6.85;;;-2.30;99.90;;;;;;5093080;28;20798;-83
2022/02/12 03:03:43;;;;;;;12.43;7.93;;;-2.40;99.90;;;;;;5111684;28;20382;-83
2022/02/12 03:06:09;;;;;;;11.57;6.93;;;-2.40;99.90;;;;;;5110234;28;20417;-83
2022/02/12 03:08:36;;;;;;;13.75;7.85;;;-2.40;99.90;;;;;;5092364;28;20377;-84
2022/02/12 03:11:02;;;;;;;15.65;7.72;;;-2.40;99.90;;;;;;5106707;28;20402;-84
2022/02/12 03:13:28;;;;;;;15.82;8.23;;;-2.40;99.90;;;;;;5092897;28;20418;-84
2022/02/12 03:15:54;;;;;;;14.37;8.47;;;-2.40;99.90;;;;;;5078109;28;20802;-85
2022/02/12 03:18:20;;;;;;;15.23;7.97;;;-2.40;99.90;;;;;;5104118;28;20738;-82
2022/02/12 03:20:46;;;;;;;13.25;7.20;;;-2.50;99.90;;;;;;5103122;28;20443;-85
2022/02/12 03:23:12;;;;;;;16.02;7.82;;;-2.50;99.90;;;;;;5104713;28;20383;-83
2022/02/12 03:25:37;;;;;;;11.35;7.63;;;-2.50;99.90;;;;;;5099558;28;20920;-82
2022/02/12 03:28:05;;;;;;;14.43;7.77;;;-2.50;99.90;;;;;;5073563;28;20368;-83
2022/02/12 03:30:39;;;;;;;14.00;8.23;;;-2.60;99.90;;;;;;5072975;28;20519;-83
2022/02/12 03:33:05;;;;;;;13.90;8.55;;;-2.60;99.90;;;;;;5091185;28;20384;-84
2022/02/12 03:35:32;;;;;;;13.65;8.25;;;-2.60;99.90;;;;;;5097345;28;20367;-83
2022/02/12 03:38:06;;;;;;;14.27;7.90;;;-2.60;99.90;;;;;;5091561;28;20388;-82
2022/02/12 03:40:34;;;;;;;13.82;8.70;;;-2.60;99.90;;;;;;5091157;28;20676;-83
2022/02/12 03:42:59;;;;;;;18.85;8.93;;;-2.70;99.90;;;;;;5098778;28;20458;-84
2022/02/12 03:45:25;;;;;;;35.90;16.80;;;-2.70;99.90;;;;;;5110515;28;20458;-83
2022/02/12 03:47:51;;;;;;;62.30;27.73;;;-2.70;99.90;;;;;;5083968;28;20454;-83
2022/02/12 03:50:17;;;;;;;68.87;30.83;;;-2.70;99.90;;;;;;5091181;28;20393;-83
2022/02/12 03:52:42;;;;;;;54.70;25.57;;;-2.70;99.90;;;;;;5091047;28;20380;-85
2022/02/12 03:55:09;;;;;;;54.40;27.07;;;-2.70;99.90;;;;;;5091443;28;20963;-83
2022/02/12 03:57:37;;;;;;;39.22;19.38;;;-2.70;99.90;;;;;;5090875;28;20377;-84
2022/02/12 04:00:11;;;;;;;35.58;18.10;;;-2.80;99.90;;;;;;5103925;28;20867;-84
2022/02/12 04:02:41;;;;;;;31.98;16.77;;;-2.80;99.90;;;;;;5086348;28;20741;-85
2022/02/12 04:05:11;;;;;;;37.65;18.30;;;-2.80;99.90;;;;;;5087174;28;20379;-83
2022/02/12 04:07:38;;;;;;;31.55;16.67;;;-2.80;99.90;;;;;;5091535;28;20379;-83
2022/02/12 04:10:09;;;;;;;35.15;17.15;;;-2.90;99.90;;;;;;5091654;28;20399;-84
2022/02/12 04:12:35;;;;;;;32.75;15.55;;;-2.90;99.90;;;;;;5109823;28;20370;-86
2022/02/12 04:15:01;;;;;;;27.65;14.45;;;-2.90;99.90;;;;;;5110231;28;20375;-84
2022/02/12 04:17:26;;;;;;;36.17;17.40;;;-2.90;99.90;;;;;;5091754;28;20394;-83
2022/02/12 04:19:52;;;;;;;26.93;14.20;;;-2.90;99.90;;;;;;5091308;28;20428;-83
2022/02/12 04:22:18;;;;;;;36.27;18.10;;;-2.90;99.90;;;;;;5091265;28;20884;-84
2022/02/12 04:24:43;;;;;;;37.90;18.10;;;-2.80;99.90;;;;;;5091779;28;20375;-83
2022/02/12 04:27:09;;;;;;;26.60;14.27;;;-2.90;99.90;;;;;;5109587;28;20706;-84
2022/02/12 04:29:35;;;;;;;30.33;14.90;;;-2.80;99.90;;;;;;5091185;28;20389;-85
2022/02/12 04:32:01;;;;;;;28.67;13.30;;;-2.90;99.90;;;;;;5098874;28;20827;-85
2022/02/12 04:34:26;;;;;;;24.73;11.43;;;-2.90;99.90;;;;;;5076958;28;20476;-83
2022/02/12 04:36:53;;;;;;;29.33;13.40;;;-2.90;99.90;;;;;;5094688;28;20412;-83
2022/02/12 04:39:19;;;;;;;23.33;12.20;;;-3.00;99.90;;;;;;5072879;28;20813;-85
2022/02/12 04:41:45;;;;;;;20.15;10.95;;;-3.00;99.90;;;;;;5086967;28;20408;-84
2022/02/12 04:44:12;;;;;;;21.65;11.18;;;-3.00;99.90;;;;;;5086638;28;20860;-83
2022/02/12 04:46:38;;;;;;;17.43;9.50;;;-3.00;99.90;;;;;;5073417;28;20475;-84
2022/02/12 04:49:06;;;;;;;21.40;12.40;;;-3.00;99.90;;;;;;5089896;28;20375;-86
2022/02/12 04:51:32;;;;;;;25.17;11.85;;;-3.00;99.90;;;;;;5082960;28;20409;-84
2022/02/12 04:53:59;;;;;;;23.77;12.82;;;-2.90;99.90;;;;;;5090858;28;20861;-86
2022/02/12 04:56:25;;;;;;;23.35;12.93;;;-3.00;99.90;;;;;;5090798;28;20773;-86
2022/02/12 04:58:51;;;;;;;24.63;11.80;;;-3.00;99.90;;;;;;5107601;28;20823;-84
2022/02/12 05:01:21;;;;;;;22.70;11.82;;;-3.00;99.90;;;;;;5090926;28;20405;-85
2022/02/12 05:03:51;;;;;;;24.08;11.10;;;-3.00;99.90;;;;;;5104526;28;20377;-84
2022/02/12 05:06:18;;;;;;;24.47;12.03;;;-3.00;99.90;;;;;;5090887;28;20392;-85
2022/02/12 05:08:44;;;;;;;20.17;11.40;;;-3.10;99.90;;;;;;5071614;28;20404;-84
2022/02/12 05:11:10;;;;;;;20.23;11.02;;;-3.10;99.90;;;;;;5073073;28;20404;-85
2022/02/12 05:13:36;;;;;;;22.15;10.85;;;-3.10;99.90;;;;;;5071095;28;21034;-85
2022/02/12 05:16:02;;;;;;;19.42;10.88;;;-3.10;99.90;;;;;;5089358;28;20377;-84
2022/02/12 05:18:28;;;;;;;17.00;10.20;;;-3.20;99.90;;;;;;5089264;28;20964;-84
2022/02/12 05:20:54;;;;;;;19.67;11.03;;;-3.20;99.90;;;;;;5100371;28;20437;-84
2022/02/12 05:23:19;;;;;;;28.97;13.40;;;-3.20;99.90;;;;;;5103601;28;20440;-84
2022/02/12 05:25:45;;;;;;;25.02;12.30;;;-3.20;99.90;;;;;;5109451;28;20705;-85
2022/02/12 05:28:10;;;;;;;35.78;17.75;;;-3.20;99.90;;;;;;5108859;28;20719;-84
2022/02/12 05:30:36;;;;;;;60.50;31.25;;;-3.20;99.90;;;;;;5105953;28;20402;-84
2022/02/12 05:33:02;;;;;;;44.72;24.35;;;-3.20;99.90;;;;;;5090378;28;20387;-84
2022/02/12 05:35:27;;;;;;;36.63;20.02;;;-3.20;99.90;;;;;;5092766;28;20384;-85
2022/02/12 05:37:53;;;;;;;33.40;18.23;;;-3.20;99.90;;;;;;5093546;28;20388;-84
2022/02/12 05:40:18;;;;;;;34.67;19.60;;;-3.20;99.90;;;;;;5089333;28;20465;-83
2022/02/12 05:42:44;;;;;;;37.97;19.57;;;-3.20;99.90;;;;;;5070666;28;20384;-83
2022/02/12 05:45:10;;;;;;;39.93;21.53;;;-3.20;99.90;;;;;;5078813;28;20371;-84
2022/02/12 05:47:40;;;;;;;40.33;21.40;;;-3.30;99.90;;;;;;5104470;28;20797;-82
2022/02/12 05:50:06;;;;;;;40.37;21.43;;;-3.30;99.90;;;;;;5090031;28;20390;-83
2022/02/12 05:52:32;;;;;;;49.97;24.15;;;-3.30;99.90;;;;;;5082182;28;20478;-83
2022/02/12 05:54:57;;;;;;;45.17;23.38;;;-3.40;99.90;;;;;;5088481;28;20403;-84
2022/02/12 05:57:23;;;;;;;49.15;24.17;;;-3.40;99.90;;;;;;5072149;28;20392;-82
2022/02/12 05:59:48;;;;;;;46.55;24.52;;;-3.40;99.90;;;;;;5088758;28;20418;-82
2022/02/12 06:02:14;;;;;;;45.37;23.10;;;-3.40;99.90;;;;;;5093445;28;20969;-85
2022/02/12 06:04:39;;;;;;;43.53;23.77;;;-3.50;99.90;;;;;;5088482;28;20906;-81
2022/02/12 06:07:05;;;;;;;46.40;23.93;;;-3.50;99.90;;;;;;5094108;28;20374;-84
2022/02/12 06:09:31;;;;;;;40.33;21.63;;;-3.50;99.90;;;;;;5107671;28;20374;-82
2022/02/12 06:11:56;;;;;;;35.95;18.35;;;-3.50;99.90;;;;;;5108111;28;20395;-83
2022/02/12 06:14:22;;;;;;;30.38;16.25;;;-3.50;99.90;;;;;;5093816;28;20410;-82
2022/02/12 06:16:47;;;;;;;26.55;14.30;;;-3.50;99.90;;;;;;5093665;28;20394;-83
2022/02/12 06:19:13;;;;;;;23.73;12.55;;;-3.50;99.90;;;;;;5085817;28;20390;-85
2022/02/12 06:21:39;;;;;;;22.15;11.98;;;-3.50;99.90;;;;;;5091981;28;20433;-82
2022/02/12 06:24:05;;;;;;;26.83;14.40;;;-3.50;99.90;;;;;;5096470;28;20899;-82
2022/02/12 06:26:30;;;;;;;24.40;14.57;;;-3.50;99.90;;;;;;5093244;28;20363;-82
2022/02/12 06:28:56;;;;;;;27.55;14.90;;;-3.40;99.90;;;;;;5085843;28;20385;-85
2022/02/12 06:31:21;;;;;;;22.70;12.63;;;-3.40;99.90;;;;;;5092403;28;20388;-83
2022/02/12 06:33:47;;;;;;;28.80;15.03;;;-3.40;99.90;;;;;;5074055;28;20407;-82
2022/02/12 06:36:13;;;;;;;21.97;12.80;;;-3.40;99.90;;;;;;5095853;28;20887;-83
2022/02/12 06:38:38;;;;;;;17.50;10.50;;;-3.40;99.90;;;;;;5092814;28;20487;-85
2022/02/12 06:41:04;;;;;;;22.07;12.20;;;-3.40;99.90;;;;;;5111632;28;20519;-84
2022/02/12 06:43:30;;;;;;;22.10;11.27;;;-3.50;99.90;;;;;;5111659;28;20375;-84
2022/02/12 06:45:55;;;;;;;20.10;11.90;;;-3.50;99.90;;;;;;5100790;28;20892;-84
2022/02/12 06:48:21;;;;;;;18.07;11.07;;;-3.50;99.90;;;;;;5088079;28;20463;-84
2022/02/12 06:50:48;;;;;;;17.77;10.77;;;-3.40;99.90;;;;;;5086782;28;20420;-83
2022/02/12 06:53:14;;;;;;;16.55;10.35;;;-3.40;99.90;;;;;;5108944;28;20387;-84
2022/02/12 06:55:40;;;;;;;15.88;10.27;;;-3.40;99.90;;;;;;5111201;28;20733;-82
2022/02/12 06:58:05;;;;;;;17.40;9.87;;;-3.30;99.90;;;;;;5110404;28;20516;-85
2022/02/12 07:00:31;;;;;;;22.87;12.93;;;-3.30;99.90;;;;;;5091884;28;20368;-83
2022/02/12 07:02:57;;;;;;;19.87;12.20;;;-3.30;99.90;;;;;;5085391;28;20391;-82
2022/02/12 07:05:23;;;;;;;24.67;13.43;;;-3.20;99.90;;;;;;5091459;28;20502;-83
2022/02/12 07:07:50;;;;;;;18.05;11.65;;;-3.20;99.90;;;;;;5091187;28;20949;-82
2022/02/12 07:10:16;;;;;;;19.95;11.95;;;-3.10;99.90;;;;;;5103163;28;20396;-82
2022/02/12 07:12:43;;;;;;;20.45;11.38;;;-3.00;99.90;;;;;;5091612;28;20368;-82
2022/02/12 07:15:09;;;;;;;19.80;11.52;;;-2.90;99.90;;;;;;5092774;28;20388;-84
2022/02/12 07:17:39;;;;;;;15.40;9.70;;;-2.80;99.90;;;;;;5091267;28;20372;-83
2022/02/12 07:20:06;;;;;;;16.03;10.00;;;-2.70;99.90;;;;;;5099217;28;20457;-82
2022/02/12 07:22:32;;;;;;;20.92;11.05;;;-2.60;99.90;;;;;;5091256;28;20383;-84
2022/02/12 07:24:58;;;;;;;19.50;10.63;;;-2.50;99.90;;;;;;5092355;28;20876;-83
2022/02/12 07:27:23;;;;;;;21.27;10.80;;;-2.40;99.90;;;;;;5104058;28;20781;-82
2022/02/12 07:29:49;;;;;;;18.80;10.80;;;-2.30;99.90;;;;;;5073974;28;20377;-83
2022/02/12 07:32:15;;;;;;;19.10;11.40;;;-2.20;99.90;;;;;;5090961;28;20396;-82
2022/02/12 07:34:40;;;;;;;18.25;10.93;;;-2.10;99.90;;;;;;5093230;28;20438;-84
2022/02/12 07:37:06;;;;;;;20.67;11.93;;;-2.00;99.90;;;;;;5072851;28;20372;-83
2022/02/12 07:39:32;;;;;;;19.93;11.83;;;-1.80;99.90;;;;;;5091434;28;20410;-85
2022/02/12 07:41:58;;;;;;;21.55;13.38;;;-1.70;99.90;;;;;;5090825;28;20906;-83
2022/02/12 07:44:24;;;;;;;28.60;14.98;;;-1.60;99.90;;;;;;5091321;28;20387;-84
2022/02/12 07:46:49;;;;;;;24.10;14.30;;;-1.50;99.90;;;;;;5096379;28;20384;-82
2022/02/12 07:49:15;;;;;;;22.88;13.52;;;-1.30;99.90;;;;;;5097303;28;20416;-84
2022/02/12 07:51:41;;;;;;;21.40;13.88;;;-1.20;99.90;;;;;;5072357;28;20436;-83
2022/02/12 07:54:06;;;;;;;23.35;13.68;;;-1.00;99.90;;;;;;5096587;28;20392;-83
2022/02/12 07:56:32;;;;;;;21.97;14.00;;;-0.90;99.90;;;;;;5090611;28;20483;-83
2022/02/12 07:58:58;;;;;;;25.25;14.07;;;-0.70;99.90;;;;;;5076620;28;20407;-83
2022/02/12 08:01:24;;;;;;;23.48;14.25;;;-0.50;99.90;;;;;;5108577;28;20421;-84
2022/02/12 08:03:50;;;;;;;23.00;13.30;;;-0.40;99.90;;;;;;5103007;28;20393;-84
2022/02/12 08:09:00;;;;;;;23.07;15.37;;;-0.10;99.90;;;;;;5110607;28;20401;-84
2022/02/12 08:11:30;;;;;;;26.83;16.30;;;0.10;99.90;;;;;;5103038;28;20402;-84
2022/02/12 08:13:55;;;;;;;30.03;17.40;;;0.20;99.90;;;;;;5110289;28;20382;-82
2022/02/12 08:16:22;;;;;;;24.87;16.50;;;0.20;99.90;;;;;;5092008;28;20390;-83
2022/02/12 08:18:48;;;;;;;25.37;16.27;;;0.30;99.90;;;;;;5106736;28;20451;-84
2022/02/12 08:21:13;;;;;;;22.03;15.13;;;0.40;99.90;;;;;;5103953;28;20386;-84
2022/02/12 08:23:39;;;;;;;27.17;15.13;;;0.50;99.90;;;;;;5091293;28;20722;-83
2022/02/12 08:26:05;;;;;;;28.58;15.13;;;0.50;99.90;;;;;;5091513;28;20397;-83
2022/02/12 08:28:31;;;;;;;28.55;14.68;;;0.60;99.90;;;;;;5091247;28;20516;-84
2022/02/12 08:30:56;;;;;;;28.13;14.57;;;0.60;99.90;;;;;;5085480;28;20423;-84
2022/02/12 08:33:22;;;;;;;26.42;15.27;;;0.60;99.90;;;;;;5105656;28;20457;-83
2022/02/12 08:35:47;;;;;;;31.63;15.43;;;0.60;99.90;;;;;;5108300;28;20375;-82
2022/02/12 08:38:13;;;;;;;25.93;14.47;;;0.70;99.90;;;;;;5089983;28;20444;-83
2022/02/12 08:40:39;;;;;;;27.27;14.60;;;0.80;99.90;;;;;;5105242;28;20470;-85
2022/02/12 08:43:07;;;;;;;21.02;12.43;;;0.90;99.90;;;;;;5089921;28;20398;-85
2022/02/12 08:45:33;;;;;;;20.92;12.90;;;1.10;99.90;;;;;;5089787;28;20460;-84
2022/02/12 08:47:59;;;;;;;22.92;12.60;;;1.30;99.90;;;;;;5071822;28;20874;-83
2022/02/12 08:50:24;;;;;;;23.70;13.23;;;1.40;99.90;;;;;;5089808;28;20820;-83
2022/02/12 08:52:50;;;;;;;18.27;11.95;;;1.30;99.90;;;;;;5073349;28;20379;-85
2022/02/12 08:55:16;;;;;;;22.10;12.68;;;1.40;99.90;;;;;;5095573;28;20408;-85
2022/02/12 08:57:42;;;;;;;19.70;11.65;;;1.60;99.90;;;;;;5092532;28;20469;-83
2022/02/12 09:00:10;;;;;;;21.02;11.30;;;1.80;99.90;;;;;;5070943;28;20381;-84
2022/02/12 09:02:36;;;;;;;22.17;11.43;;;2.00;99.90;;;;;;5091895;28;20403;-83
2022/02/12 09:05:03;;;;;;;25.15;11.65;;;2.00;99.90;;;;;;5090318;28;20376;-82
2022/02/12 09:07:28;;;;;;;20.63;10.77;;;2.10;99.90;;;;;;5072071;28;20377;-83
2022/02/12 09:09:54;;;;;;;21.73;10.93;;;2.30;99.90;;;;;;5090942;28;20434;-82
2022/02/12 09:12:20;;;;;;;18.95;9.60;;;2.20;99.90;;;;;;5093767;28;20401;-83
2022/02/12 09:14:46;;;;;;;19.23;10.02;;;2.30;99.90;;;;;;5079224;28;20385;-83
2022/02/12 09:17:14;;;;;;;22.33;10.13;;;2.40;99.90;;;;;;5106766;28;20398;-84
2022/02/12 09:19:39;;;;;;;18.90;9.80;;;2.50;99.90;;;;;;5085873;28;20869;-83
2022/02/12 09:22:05;;;;;;;23.45;9.90;;;2.60;99.90;;;;;;5104086;28;20415;-84
2022/02/12 09:24:30;;;;;;;20.75;9.55;;;2.80;99.90;;;;;;5106492;28;20367;-83
2022/02/12 09:26:56;;;;;;;18.83;8.77;;;2.90;99.90;;;;;;5106855;28;21069;-84
2022/02/12 09:29:22;;;;;;;20.77;8.80;;;3.10;99.90;;;;;;5103521;28;20398;-82
2022/02/12 09:31:47;;;;;;;18.77;7.90;;;3.10;99.90;;;;;;5103087;28;20404;-82
2022/02/12 09:34:13;;;;;;;20.42;8.68;;;3.20;99.90;;;;;;5087243;28;20394;-83
2022/02/12 09:36:40;;;;;;;17.73;9.65;;;3.30;99.90;;;;;;5105200;28;20403;-83
2022/02/12 09:39:06;;;;;;;14.30;7.17;;;3.30;99.90;;;;;;5087268;28;20801;-82
2022/02/12 09:41:33;;;;;;;22.48;8.02;;;3.50;99.90;;;;;;5098765;28;21022;-81
2022/02/12 09:43:59;;;;;;;16.10;7.75;;;3.30;99.90;;;;;;5105025;28;20448;-83
2022/02/12 09:46:46;;;;;;;19.02;7.75;;;3.50;99.90;;;;;;5107489;28;20389;-81
2022/02/12 09:49:12;;;;;;;21.77;8.00;;;3.60;99.90;;;;;;5083015;28;20376;-82
2022/02/12 09:51:40;;;;;;;20.63;11.30;;;3.60;99.90;;;;;;5088152;28;20492;-82
2022/02/12 09:54:06;;;;;;;16.85;9.82;;;3.70;99.90;;;;;;5107828;28;20443;-81
2022/02/12 09:56:34;;;;;;;15.30;7.20;;;3.60;99.90;;;;;;5105134;28;20922;-82
2022/02/12 09:59:00;;;;;;;17.88;8.35;;;3.60;99.90;;;;;;5086923;28;20414;-81
2022/02/12 10:01:26;;;;;;;16.37;7.33;;;3.70;99.90;;;;;;5106763;28;20382;-83
2022/02/12 10:03:52;;;;;;;17.83;8.40;;;3.80;99.90;;;;;;5089596;28;20511;-84
2022/02/12 10:06:41;;;;;;;18.53;9.17;;;3.90;99.90;;;;;;5090477;28;20418;-83
2022/02/12 10:09:10;;;;;;;15.57;6.68;;;4.10;99.90;;;;;;5107307;28;20379;-83
2022/02/12 10:11:41;;;;;;;13.43;6.05;;;4.20;99.90;;;;;;5090429;28;20423;-83
2022/02/12 10:14:12;;;;;;;15.32;6.35;;;4.30;99.90;;;;;;5109465;28;20386;-82
2022/02/12 10:16:55;;;;;;;16.60;6.97;;;4.30;99.90;;;;;;5108592;28;20379;-81
2022/02/12 10:19:30;;;;;;;19.33;7.73;;;4.40;99.90;;;;;;5105290;28;20439;-82
2022/02/12 10:22:06;;;;;;;13.27;5.72;;;4.50;99.90;;;;;;5106496;28;20473;-84
2022/02/12 10:24:45;;;;;;;10.43;4.90;;;4.60;99.90;;;;;;5108611;28;20391;-82
2022/02/12 10:27:13;;;;;;;16.92;6.18;;;4.60;99.90;;;;;;5087641;28;20387;-82
2022/02/12 10:29:38;;;;;;;16.70;6.38;;;4.70;99.90;;;;;;5087464;28;20749;-82
2022/02/12 10:32:04;;;;;;;19.20;7.33;;;4.70;99.90;;;;;;5096158;28;20445;-82
2022/02/12 10:34:43;;;;;;;18.03;7.27;;;4.70;99.90;;;;;;5094300;28;20373;-81
2022/02/12 10:37:18;;;;;;;15.68;5.97;;;4.70;99.90;;;;;;5073631;28;20381;-84
2022/02/12 10:39:57;;;;;;;15.70;6.63;;;4.80;99.90;;;;;;5091244;28;20392;-82
2022/02/12 10:42:25;;;;;;;10.80;5.00;;;4.70;99.90;;;;;;5091425;28;20826;-83
2022/02/12 10:44:52;;;;;;;13.32;5.35;;;4.80;99.90;;;;;;5091760;28;20392;-82
2022/02/12 10:47:20;;;;;;;16.63;5.90;;;4.80;99.90;;;;;;5092862;28;21464;-82
2022/02/12 10:49:47;;;;;;;14.07;5.50;;;4.70;99.90;;;;;;5074072;28;20384;-81
2022/02/12 10:52:13;;;;;;;12.88;5.72;;;4.80;99.90;;;;;;5074711;28;20479;-82
2022/02/12 10:54:47;;;;;;;14.20;5.20;;;4.90;99.90;;;;;;5095803;28;20392;-83
2022/02/12 10:57:14;;;;;;;13.98;5.63;;;4.90;99.90;;;;;;5076813;28;20452;-83
2022/02/12 10:59:44;;;;;;;13.60;5.20;;;5.00;99.90;;;;;;5095366;28;20372;-82
2022/02/12 11:02:18;;;;;;;14.60;5.55;;;5.10;99.90;;;;;;5095390;28;20372;-82
2022/02/12 11:04:48;;;;;;;11.75;5.05;;;5.00;99.90;;;;;;5095833;28;20913;-82
2022/02/12 11:07:17;;;;;;;15.73;5.83;;;5.10;99.90;;;;;;5098499;28;20505;-82
2022/02/12 11:09:44;;;;;;;13.63;5.68;;;5.20;99.90;;;;;;5112483;28;20387;-83
2022/02/12 11:12:12;;;;;;;13.07;5.27;;;5.30;99.90;;;;;;5098817;28;20400;-83
2022/02/12 11:14:38;;;;;;;12.77;6.18;;;5.30;99.90;;;;;;5084960;28;20430;-83
2022/02/12 11:17:14;;;;;;;15.05;5.60;;;5.30;99.90;;;;;;5076420;28;20384;-83
2022/02/12 11:19:42;;;;;;;12.02;5.25;;;5.40;99.90;;;;;;5104277;28;20405;-82
2022/02/12 11:22:10;;;;;;;13.63;4.80;;;5.50;99.90;;;;;;5114381;28;20371;-81
2022/02/12 11:24:43;;;;;;;13.43;5.55;;;5.50;99.90;;;;;;5094411;28;20479;-83
2022/02/12 11:27:18;;;;;;;10.75;5.20;;;5.60;99.90;;;;;;5094776;28;20860;-82
2022/02/12 11:29:45;;;;;;;15.13;5.47;;;5.60;99.90;;;;;;5094655;28;20870;-82
2022/02/12 11:32:23;;;;;;;16.00;5.80;;;5.70;99.90;;;;;;5114556;28;20409;-82
2022/02/12 11:35:08;;;;;;;13.05;4.85;;;5.80;99.90;;;;;;5115857;28;20410;-82
2022/02/12 11:37:46;;;;;;;12.30;5.03;;;5.90;99.90;;;;;;5113809;28;20826;-81
2022/02/12 11:40:21;;;;;;;13.13;5.30;;;6.10;99.90;;;;;;5095444;28;20440;-81
2022/02/12 11:42:49;;;;;;;12.35;5.10;;;6.20;99.90;;;;;;5094756;28;20721;-81
2022/02/12 11:45:36;;;;;;;11.30;4.57;;;6.10;99.90;;;;;;5095121;28;20431;-82
2022/02/12 11:48:24;;;;;;;16.67;4.57;;;6.10;99.90;;;;;;5093838;28;20819;-82
2022/02/12 11:51:07;;;;;;;11.13;4.05;;;6.00;99.90;;;;;;5112869;28;20399;-82
2022/02/12 11:53:43;;;;;;;11.60;4.72;;;6.00;99.90;;;;;;5111967;28;20369;-81
2022/02/12 11:56:09;;;;;;;13.43;4.38;;;5.90;99.90;;;;;;5092869;28;20821;-81
2022/02/12 11:58:41;;;;;;;11.43;5.53;;;5.80;99.90;;;;;;5112085;28;20404;-81
2022/02/12 12:01:28;;;;;;;8.93;4.00;;;5.80;99.90;;;;;;5113385;28;20374;-82
2022/02/12 12:04:11;;;;;;;9.10;3.97;;;5.80;99.90;;;;;;5080250;28;20528;-83
2022/02/12 12:07:05;;;;;;;12.85;4.70;;;5.90;99.90;;;;;;5096641;28;20410;-81
2022/02/12 12:09:36;;;;;;;7.68;2.70;;;6.20;99.90;;;;;;5081545;28;20485;-83
2022/02/12 12:12:11;;;;;;;10.05;4.05;;;6.20;99.90;;;;;;5094561;28;20401;-83
2022/02/12 12:14:37;;;;;;;10.15;4.88;;;6.00;99.90;;;;;;5112276;28;20892;-83
2022/02/12 12:17:03;;;;;;;8.40;3.67;;;5.90;99.90;;;;;;5113326;28;20392;-82
2022/02/12 12:19:37;;;;;;;8.40;3.72;;;5.90;99.90;;;;;;5113127;28;20379;-82
2022/02/12 12:22:11;;;;;;;11.93;3.33;;;6.10;99.90;;;;;;5112395;28;20473;-82
2022/02/12 12:24:38;;;;;;;7.80;3.00;;;6.00;99.90;;;;;;5092076;28;20972;-83
2022/02/12 12:27:05;;;;;;;10.03;3.43;;;6.10;99.90;;;;;;5097182;28;20448;-83
2022/02/12 12:32:17;;;;;;;9.63;3.97;;;6.20;99.90;;;;;;5117119;28;20463;-82
2022/02/12 12:35:03;;;;;;;8.65;3.42;;;6.00;99.90;;;;;;5098644;28;20371;-82
2022/02/12 12:37:30;;;;;;;10.07;4.07;;;5.90;99.90;;;;;;5114246;28;20379;-82
2022/02/12 12:40:00;;;;;;;8.00;3.13;;;5.90;99.90;;;;;;5111553;28;20414;-82
2022/02/12 12:42:28;;;;;;;6.57;2.92;;;5.90;99.90;;;;;;5110354;28;20447;-83
2022/02/12 12:45:14;;;;;;;7.10;3.03;;;5.90;99.90;;;;;;5108513;28;20861;-83
2022/02/12 12:47:51;;;;;;;6.60;2.72;;;5.80;99.90;;;;;;5074000;28;20387;-82